CET,Max TemperatureF,Mean TemperatureF,Min TemperatureF,Max Dew PointF,MeanDew PointF,Min DewpointF,Max Humidity, Mean Humidity, Min Humidity, Max Sea Level PressureIn, Mean Sea Level PressureIn, Min Sea Level PressureIn, Max VisibilityMiles, Mean VisibilityMiles, Min VisibilityMiles, Max Wind SpeedMPH, Mean Wind SpeedMPH, Max Gust SpeedMPH,PrecipitationIn, CloudCover, Events, WindDirDegrees
2012-2-1,50,44,37,43,38,34,93,82,54,29.92,29.72,29.56,6,5,1,23,7,38,0.00,5,Rain-Thunderstorm,198
2012-2-2,48,40,33,41,37,32,93,84,62,29.86,29.80,29.74,6,6,4,13,4,,0.00,4,Rain,13
2012-2-3,48,44,39,45,38,34,93,82,66,29.80,29.68,29.59,6,5,2,21,13,30,0.00,7,Rain-Thunderstorm,44
2012-2-4,46,40,33,36,33,30,93,76,57,30.06,29.86,29.62,6,5,0,20,12,30,0.00,4,Rain-Snow,356
2012-2-5,44,40,35,34,31,30,87,70,57,30.09,30.01,29.92,6,6,4,14,7,,0.00,6,Rain,20
2012-2-6,42,38,35,32,27,25,81,64,53,29.92,29.72,29.56,6,6,5,16,11,,0.00,6,Rain,48
2012-2-7,41,38,35,28,26,25,75,62,53,29.77,29.60,29.50,6,6,3,14,8,21,0.00,5,Snow,36
2012-2-8,46,42,39,32,30,28,70,62,57,30.04,29.91,29.77,6,6,6,17,12,29,0.00,5,,45
2012-2-9,46,42,37,28,25,23,61,53,40,30.09,30.03,29.98,6,6,0,17,8,,0.00,3,,38
2012-2-10,42,40,37,39,32,25,93,73,53,29.98,29.83,29.71,6,5,1,15,7,,0.00,6,Rain-Thunderstorm,26
2012-2-11,44,40,37,39,35,30,93,80,61,29.95,29.91,29.80,6,5,1,12,6,31,0.00,5,Rain-Thunderstorm,347
2012-2-12,42,38,35,37,34,30,93,86,76,30.01,29.94,29.89,6,5,2,10,5,,0.00,5,Rain,4
2012-2-13,46,39,32,32,29,27,87,69,46,30.01,29.95,29.92,6,5,3,8,5,,0.00,2,,2
2012-2-14,46,40,32,28,26,23,75,62,46,29.95,29.87,29.83,6,5,4,12,7,,0.00,4,,16
2012-2-15,48,39,30,34,25,19,76,58,40,29.98,29.91,29.80,6,6,5,16,5,,0.00,3,Rain,334
2012-2-16,51,43,35,34,27,19,87,57,30,30.15,29.91,29.77,5,5,5,20,6,31,0.00,2,,22
2012-2-17,51,40,28,36,28,21,81,55,34,30.24,30.20,30.15,6,6,6,10,6,,0.00,1,,344
2012-2-18,55,45,35,46,41,32,93,81,67,30.21,30.19,30.18,6,6,5,10,3,,0.00,4,Rain,214
2012-2-19,57,52,46,48,45,43,94,81,63,30.21,30.17,30.15,6,6,4,13,4,,0.00,5,Rain,180
2012-2-20,57,50,42,46,43,39,93,80,58,30.24,30.18,30.15,6,6,4,8,5,,0.00,5,Rain,56
2012-2-21,59,50,42,43,40,37,87,69,48,30.24,30.19,30.15,6,6,5,16,7,29,0.00,3,Rain,35
2012-2-22,57,52,48,41,39,37,71,63,51,30.12,30.03,29.98,6,6,6,34,21,50,0.00,4,,55
2012-2-23,59,54,46,41,39,37,71,58,45,30.21,30.11,30.04,6,6,6,20,12,,0.00,3,Rain,39
2012-2-24,62,50,39,45,39,32,87,65,39,30.30,30.25,30.21,4,4,4,6,3,,0.00,,,332
2012-2-25,59,52,44,48,46,41,93,80,63,30.27,30.14,30.01,6,4,2,8,3,,0.00,3,,203
2012-2-26,57,50,44,46,43,32,93,72,50,30.01,29.85,29.77,6,6,5,25,6,36,0.00,5,,296
2012-2-27,53,48,44,30,22,14,47,35,24,30.18,30.02,29.86,6,6,6,26,18,43,0.00,3,,37
2012-2-28,55,48,41,37,29,21,81,51,29,30.21,30.18,30.15,6,6,6,14,7,,0.00,2,,5
2012-2-29,60,48,37,46,41,34,87,73,48,30.15,30.07,30.01,6,6,4,7,2,,0.00,4,,266